Time;durP1;ratioP1;P1;durP2;ratioP2;P2;SDS_P1;SDS_P2;PMS_P1;PMS_P2;Temp;Humidity;BMP_temperature;BMP_pressure;BME280_temperature;BME280_humidity;BME280_pressure;Samples;Min_cycle;Max_cycle;Signal;HPM_P1;HPM_P2
2023/12/22 00:01:29;;;;;;;16.90;3.28;;;5.10;99.90;;;;;;4925069;29;20049;-77
2023/12/22 00:03:54;;;;;;;18.65;3.40;;;4.70;99.90;;;;;;4940151;29;20047;-75
2023/12/22 00:06:23;;;;;;;11.60;2.25;;;4.60;99.90;;;;;;4924507;29;20051;-77
2023/12/22 00:09:01;;;;;;;22.05;3.75;;;4.70;99.90;;;;;;4940481;29;20062;-77
2023/12/22 00:11:30;;;;;;;16.15;2.97;;;4.70;99.90;;;;;;4940040;29;20098;-76
2023/12/22 00:13:56;;;;;;;22.98;3.78;;;4.70;99.90;;;;;;4924760;29;20035;-77
2023/12/22 00:16:28;;;;;;;19.52;3.83;;;4.80;99.90;;;;;;4924209;29;20475;-77
2023/12/22 00:18:55;;;;;;;18.88;3.33;;;4.80;99.90;;;;;;4924052;29;20506;-76
2023/12/22 00:21:21;;;;;;;22.38;4.25;;;4.90;99.90;;;;;;4908378;29;20061;-75
2023/12/22 00:23:47;;;;;;;19.83;4.05;;;5.00;99.90;;;;;;4939711;29;20138;-77
2023/12/22 00:26:16;;;;;;;23.27;4.13;;;5.00;99.90;;;;;;4924130;29;20118;-78
2023/12/22 00:28:42;;;;;;;22.02;4.53;;;5.10;99.90;;;;;;4924209;29;20043;-78
2023/12/22 00:31:19;;;;;;;22.52;3.72;;;5.20;99.90;;;;;;4923976;29;20126;-77
2023/12/22 00:33:45;;;;;;;24.13;4.22;;;5.20;99.90;;;;;;4939590;29;20140;-77
2023/12/22 00:36:10;;;;;;;24.08;4.13;;;5.20;99.90;;;;;;4923993;29;20535;-77
2023/12/22 00:38:36;;;;;;;24.52;3.80;;;5.20;99.90;;;;;;4923996;29;20040;-77
2023/12/22 00:41:02;;;;;;;18.55;3.33;;;5.20;99.90;;;;;;4923680;29;20130;-76
2023/12/22 00:43:35;;;;;;;20.88;4.13;;;5.20;99.90;;;;;;4924328;29;20070;-76
2023/12/22 00:46:10;;;;;;;17.58;3.60;;;5.20;99.90;;;;;;4924436;29;20047;-77
2023/12/22 00:48:36;;;;;;;17.90;3.45;;;5.20;99.90;;;;;;4924433;29;20047;-77
2023/12/22 00:51:02;;;;;;;24.17;4.40;;;5.20;99.90;;;;;;4939399;29;20102;-77
2023/12/22 00:53:31;;;;;;;23.25;4.05;;;5.10;99.90;;;;;;4939505;29;20500;-76
2023/12/22 00:55:57;;;;;;;20.40;3.97;;;5.30;99.90;;;;;;4923473;29;20122;-76
2023/12/22 00:58:23;;;;;;;23.42;4.47;;;5.30;99.90;;;;;;4923305;29;20102;-76
2023/12/22 01:00:49;;;;;;;22.85;4.75;;;5.40;99.90;;;;;;4939403;29;20456;-76
2023/12/22 01:03:15;;;;;;;22.30;3.97;;;5.40;99.90;;;;;;4907793;29;20046;-76
2023/12/22 01:05:41;;;;;;;21.85;4.50;;;5.40;99.90;;;;;;4923366;29;20105;-78
2023/12/22 01:08:07;;;;;;;20.23;3.90;;;5.30;99.90;;;;;;4923410;29;20094;-72
2023/12/22 01:10:34;;;;;;;21.05;3.80;;;5.20;99.90;;;;;;4923243;29;20130;-72
2023/12/22 01:12:59;;;;;;;18.73;3.50;;;5.00;99.90;;;;;;4907528;29;20074;-73
2023/12/22 01:15:26;;;;;;;21.77;3.70;;;4.90;99.90;;;;;;4923306;29;20126;-71
2023/12/22 01:17:52;;;;;;;20.63;3.80;;;4.90;99.90;;;;;;4923276;29;20369;-72
2023/12/22 01:20:18;;;;;;;20.77;3.85;;;4.80;99.90;;;;;;4922991;29;20050;-72
2023/12/22 01:22:44;;;;;;;21.45;4.10;;;4.80;99.90;;;;;;4923171;29;20444;-73
2023/12/22 01:25:16;;;;;;;20.67;4.00;;;4.80;99.90;;;;;;4922771;29;20110;-72
2023/12/22 01:27:54;;;;;;;21.65;3.92;;;4.80;99.90;;;;;;4926364;29;20480;-72
2023/12/22 01:30:25;;;;;;;24.92;4.72;;;4.80;99.90;;;;;;4906241;29;20039;-72
2023/12/22 01:32:51;;;;;;;29.33;4.78;;;4.80;99.90;;;;;;4923494;29;20504;-72
2023/12/22 01:35:17;;;;;;;28.10;4.50;;;4.80;99.90;;;;;;4922954;29;20082;-71
2023/12/22 01:37:45;;;;;;;21.13;4.35;;;4.80;99.90;;;;;;4922580;29;20043;-72
2023/12/22 01:40:11;;;;;;;25.33;4.60;;;4.90;99.90;;;;;;4938286;29;20094;-72
2023/12/22 01:42:37;;;;;;;26.15;4.85;;;4.90;99.90;;;;;;4922731;29;20436;-72
2023/12/22 01:45:07;;;;;;;21.67;4.03;;;5.00;99.90;;;;;;4922748;29;20535;-73
2023/12/22 01:47:34;;;;;;;16.23;3.40;;;5.10;99.90;;;;;;4938246;29;20134;-72
2023/12/22 01:50:06;;;;;;;18.10;3.75;;;5.20;99.90;;;;;;4906668;29;20078;-72
2023/12/22 01:52:39;;;;;;;20.23;3.17;;;5.10;99.90;;;;;;4922177;29;20047;-71
2023/12/22 01:55:11;;;;;;;20.05;3.67;;;5.10;99.90;;;;;;4922784;29;20074;-72
2023/12/22 01:57:40;;;;;;;22.98;3.42;;;5.10;99.90;;;;;;4938213;29;20122;-72
2023/12/22 02:00:08;;;;;;;16.40;3.40;;;5.20;99.90;;;;;;4937857;29;20043;-74
2023/12/22 02:02:38;;;;;;;18.40;3.22;;;5.10;99.90;;;;;;4922316;29;20039;-72
2023/12/22 02:05:05;;;;;;;16.83;3.17;;;5.10;99.90;;;;;;4922967;29;20042;-71
2023/12/22 02:07:32;;;;;;;20.83;3.35;;;5.10;99.90;;;;;;4922415;29;20493;-72
2023/12/22 02:10:01;;;;;;;19.05;3.50;;;5.10;99.90;;;;;;4922311;29;20043;-72
2023/12/22 02:12:27;;;;;;;20.85;3.70;;;5.20;99.90;;;;;;4937725;29;20044;-73
2023/12/22 02:14:53;;;;;;;19.13;3.70;;;5.20;99.90;;;;;;4922079;29;20050;-72
2023/12/22 02:17:26;;;;;;;19.45;3.70;;;5.20;99.90;;;;;;4906296;29;20039;-72
2023/12/22 02:19:55;;;;;;;17.15;3.53;;;5.20;99.90;;;;;;4937834;29;20484;-72
2023/12/22 02:22:31;;;;;;;20.20;3.72;;;5.20;99.90;;;;;;4937997;29;20502;-72
2023/12/22 02:24:56;;;;;;;18.13;3.20;;;5.20;99.90;;;;;;4907197;29;20138;-73
2023/12/22 02:27:31;;;;;;;17.10;3.42;;;5.20;99.90;;;;;;4906094;29;20254;-72
2023/12/22 02:30:22;;;;;;;23.50;4.25;;;5.20;99.90;;;;;;4921994;29;20042;-72
2023/12/22 02:32:51;;;;;;;21.92;3.40;;;5.20;99.90;;;;;;4921765;29;20043;-72
2023/12/22 02:35:23;;;;;;;23.45;4.25;;;5.20;99.90;;;;;;4937594;29;20050;-72
2023/12/22 02:37:50;;;;;;;22.15;3.85;;;5.30;99.90;;;;;;4937691;29;20492;-72
2023/12/22 02:40:17;;;;;;;14.60;3.03;;;5.30;99.90;;;;;;4937780;29;20050;-76
2023/12/22 02:42:44;;;;;;;23.10;4.05;;;5.50;99.90;;;;;;4937450;29;20106;-78
2023/12/22 02:45:16;;;;;;;19.17;3.85;;;5.50;99.90;;;;;;4921945;29;20039;-77
2023/12/22 02:47:43;;;;;;;23.75;4.30;;;5.40;99.90;;;;;;4937509;29;20047;-76
2023/12/22 02:50:14;;;;;;;19.13;3.58;;;5.30;99.90;;;;;;4921858;29;20396;-78
2023/12/22 02:52:40;;;;;;;20.63;3.60;;;5.20;99.90;;;;;;4937796;29;20551;-77
2023/12/22 02:55:06;;;;;;;21.88;4.20;;;5.20;99.90;;;;;;4921538;29;20086;-75
2023/12/22 02:57:32;;;;;;;24.70;4.10;;;5.10;99.90;;;;;;4937574;29;20077;-76
2023/12/22 02:59:58;;;;;;;21.45;4.25;;;5.00;99.90;;;;;;4937077;29;20051;-75
2023/12/22 03:02:25;;;;;;;24.35;4.90;;;5.00;99.90;;;;;;4937359;29;20042;-76
2023/12/22 03:04:51;;;;;;;24.75;4.15;;;4.90;99.90;;;;;;4922026;29;20078;-76
2023/12/22 03:07:17;;;;;;;24.15;4.00;;;4.90;99.90;;;;;;4921854;29;20070;-76
2023/12/22 03:09:43;;;;;;;25.02;4.60;;;4.80;99.90;;;;;;4921986;29;20399;-76
2023/12/22 03:12:13;;;;;;;19.17;3.83;;;4.80;99.90;;;;;;4937121;29;20039;-76
2023/12/22 03:14:39;;;;;;;21.50;3.50;;;4.90;99.90;;;;;;4906362;29;20484;-76
2023/12/22 03:17:06;;;;;;;22.05;3.53;;;5.00;99.90;;;;;;4921397;29;20046;-76
2023/12/22 03:19:32;;;;;;;19.38;3.60;;;5.10;99.90;;;;;;4937589;29;20105;-76
2023/12/22 03:22:04;;;;;;;23.63;3.97;;;5.20;99.90;;;;;;4922348;29;20403;-76
2023/12/22 03:24:30;;;;;;;20.88;3.55;;;5.30;99.90;;;;;;4937099;29;20062;-76
2023/12/22 03:26:56;;;;;;;18.80;3.13;;;5.30;99.90;;;;;;4921668;29;20050;-76
2023/12/22 03:29:25;;;;;;;14.23;2.95;;;5.40;99.90;;;;;;4936902;29;20048;-75
2023/12/22 03:31:51;;;;;;;16.45;2.75;;;5.40;99.90;;;;;;4906103;29;20043;-77
2023/12/22 03:34:17;;;;;;;14.55;2.70;;;5.40;99.90;;;;;;4921313;29;20043;-77
2023/12/22 03:36:44;;;;;;;13.98;2.53;;;5.50;99.90;;;;;;4921671;29;20055;-77
2023/12/22 03:39:13;;;;;;;13.70;2.83;;;5.50;99.90;;;;;;4937022;29;20058;-78
2023/12/22 03:41:39;;;;;;;15.13;2.65;;;5.50;99.90;;;;;;4937440;29;20047;-77
2023/12/22 03:44:05;;;;;;;15.85;2.83;;;5.60;99.90;;;;;;4905755;29;20047;-76
2023/12/22 03:46:31;;;;;;;14.27;2.70;;;5.60;99.90;;;;;;4921578;29;20464;-77
2023/12/22 03:48:57;;;;;;;14.93;2.47;;;5.60;99.90;;;;;;4921458;29;20404;-78
2023/12/22 03:51:23;;;;;;;12.75;2.53;;;5.60;99.90;;;;;;4921872;29;20055;-77
2023/12/22 03:53:49;;;;;;;12.70;2.45;;;5.60;99.90;;;;;;4938689;29;20122;-76
2023/12/22 03:56:15;;;;;;;16.45;2.60;;;5.60;99.90;;;;;;4924883;29;20078;-77
2023/12/22 03:58:40;;;;;;;13.45;2.08;;;5.60;99.90;;;;;;4925150;29;20129;-77
2023/12/22 04:01:07;;;;;;;12.45;2.60;;;5.60;99.90;;;;;;4956330;29;20082;-76
2023/12/22 04:03:34;;;;;;;10.98;2.85;;;5.60;99.90;;;;;;4925362;29;20051;-76
2023/12/22 04:06:08;;;;;;;18.05;3.05;;;5.60;99.90;;;;;;4924817;29;20047;-76
2023/12/22 04:08:40;;;;;;;13.52;2.15;;;5.60;99.90;;;;;;4924798;29;20043;-76
2023/12/22 04:11:06;;;;;;;11.43;2.00;;;5.40;99.90;;;;;;4924531;29;20051;-76
2023/12/22 04:13:34;;;;;;;12.30;2.72;;;5.20;99.90;;;;;;4924560;29;20404;-76
2023/12/22 04:16:00;;;;;;;9.73;1.73;;;5.10;99.90;;;;;;4924555;29;20097;-77
2023/12/22 04:18:30;;;;;;;15.13;2.50;;;5.00;99.90;;;;;;4940352;29;20122;-77
2023/12/22 04:20:56;;;;;;;15.70;2.83;;;4.90;99.90;;;;;;4909484;29;20055;-76
2023/12/22 04:23:22;;;;;;;16.77;2.80;;;4.80;99.90;;;;;;4920172;29;20048;-76
2023/12/22 04:25:48;;;;;;;19.48;2.90;;;4.80;99.90;;;;;;4905673;29;20480;-77
2023/12/22 04:28:14;;;;;;;16.17;3.05;;;4.80;99.90;;;;;;4921662;29;20043;-77
2023/12/22 04:30:40;;;;;;;16.27;3.17;;;4.80;99.90;;;;;;4921052;29;20527;-75
2023/12/22 04:33:06;;;;;;;20.58;3.08;;;4.70;99.90;;;;;;4905154;29;20048;-76
2023/12/22 04:35:32;;;;;;;19.77;3.25;;;4.80;99.90;;;;;;4921974;29;20051;-75
2023/12/22 04:37:58;;;;;;;18.23;3.78;;;4.80;99.90;;;;;;4907901;29;20086;-75
2023/12/22 04:40:28;;;;;;;21.27;3.80;;;4.80;99.90;;;;;;4924705;29;20053;-76
2023/12/22 04:42:53;;;;;;;21.40;3.65;;;4.90;99.90;;;;;;4926766;29;20507;-75
2023/12/22 04:45:19;;;;;;;19.77;3.60;;;5.00;99.90;;;;;;4926691;29;20048;-75
2023/12/22 04:47:45;;;;;;;19.50;3.47;;;5.00;99.90;;;;;;4923965;29;20047;-76
2023/12/22 04:50:11;;;;;;;18.50;3.78;;;5.10;99.90;;;;;;4925598;29;20094;-75
2023/12/22 04:52:36;;;;;;;22.17;3.97;;;5.10;99.90;;;;;;4923910;29;20047;-76
2023/12/22 04:55:05;;;;;;;21.15;3.60;;;5.20;99.90;;;;;;4928418;29;20047;-75
2023/12/22 04:57:31;;;;;;;20.67;3.88;;;5.20;99.90;;;;;;4929482;29;20141;-76
2023/12/22 04:59:57;;;;;;;22.80;3.58;;;5.30;99.90;;;;;;4913842;29;20052;-74
2023/12/22 05:02:23;;;;;;;20.67;3.80;;;5.40;99.90;;;;;;4931382;29;20130;-75
2023/12/22 05:04:50;;;;;;;14.35;2.80;;;5.40;99.90;;;;;;4926228;29;20047;-76
2023/12/22 05:07:16;;;;;;;20.27;3.83;;;5.50;99.90;;;;;;4924572;29;20067;-76
2023/12/22 05:09:42;;;;;;;22.13;3.47;;;5.50;99.90;;;;;;4928053;29;20040;-77
2023/12/22 05:12:08;;;;;;;16.63;3.30;;;5.60;99.90;;;;;;4935489;29;20052;-75
2023/12/22 05:14:35;;;;;;;18.45;3.50;;;5.60;99.90;;;;;;4919753;29;20074;-76
2023/12/22 05:17:01;;;;;;;20.42;3.88;;;5.70;99.90;;;;;;4928829;29;20048;-76
2023/12/22 05:19:27;;;;;;;22.40;4.10;;;5.70;99.90;;;;;;4926589;29;20044;-76
2023/12/22 05:21:55;;;;;;;23.45;4.13;;;5.70;99.90;;;;;;4926665;29;20479;-78
2023/12/22 05:24:22;;;;;;;23.48;3.85;;;5.70;99.90;;;;;;4938274;29;20468;-77
2023/12/22 05:26:47;;;;;;;19.42;3.92;;;5.80;99.90;;;;;;4944109;29;20500;-77
2023/12/22 05:29:13;;;;;;;22.58;3.70;;;5.80;99.90;;;;;;4912212;29;20043;-77
2023/12/22 05:31:39;;;;;;;21.80;3.92;;;5.80;99.90;;;;;;4927289;29;20114;-77
2023/12/22 05:34:10;;;;;;;24.65;4.00;;;5.80;99.90;;;;;;4942221;29;20043;-77
2023/12/22 05:36:35;;;;;;;16.25;3.15;;;5.90;99.90;;;;;;4926740;29;20057;-76
2023/12/22 05:39:10;;;;;;;19.63;4.00;;;5.90;99.90;;;;;;4940747;29;20547;-76
2023/12/22 05:41:37;;;;;;;22.98;4.00;;;5.90;99.90;;;;;;4925716;29;20487;-76
2023/12/22 05:44:05;;;;;;;21.42;4.25;;;5.90;99.90;;;;;;4940112;29;20083;-76
2023/12/22 05:46:36;;;;;;;18.35;3.70;;;6.00;99.90;;;;;;4924411;29;20365;-77
2023/12/22 05:49:02;;;;;;;18.85;3.70;;;5.90;99.90;;;;;;4939312;29;20404;-77
2023/12/22 05:51:28;;;;;;;19.95;3.67;;;6.00;99.90;;;;;;4923378;29;20043;-77
2023/12/22 05:53:54;;;;;;;18.63;3.85;;;6.00;99.90;;;;;;4923107;29;20530;-77
2023/12/22 05:56:21;;;;;;;21.67;3.63;;;6.00;99.90;;;;;;4923069;29;20042;-75
2023/12/22 05:58:48;;;;;;;22.02;3.83;;;6.10;99.90;;;;;;4954656;29;20131;-77
2023/12/22 06:01:18;;;;;;;18.27;3.85;;;6.10;99.90;;;;;;4922862;29;20546;-77
2023/12/22 06:03:50;;;;;;;22.85;4.00;;;6.10;99.90;;;;;;4938622;29;20101;-77
2023/12/22 06:06:16;;;;;;;20.98;3.58;;;6.10;99.90;;;;;;4938344;29;20043;-76
2023/12/22 06:08:42;;;;;;;20.02;4.18;;;6.20;99.90;;;;;;4938422;29;20094;-76
2023/12/22 06:11:08;;;;;;;18.20;3.75;;;6.10;99.90;;;;;;4937980;29;20126;-75
2023/12/22 06:13:34;;;;;;;19.25;3.78;;;6.10;99.90;;;;;;4922454;29;20090;-77
2023/12/22 06:16:00;;;;;;;20.40;4.10;;;6.10;99.90;;;;;;4953774;28;20043;-76
2023/12/22 06:18:26;;;;;;;17.80;3.55;;;6.10;99.90;;;;;;4922447;29;20045;-76
2023/12/22 06:20:52;;;;;;;20.20;3.40;;;6.10;99.90;;;;;;4937707;29;20050;-76
2023/12/22 06:23:18;;;;;;;15.52;3.40;;;6.10;99.90;;;;;;4938043;29;20090;-77
2023/12/22 06:25:46;;;;;;;16.05;3.25;;;6.10;99.90;;;;;;4938016;29;20043;-76
2023/12/22 06:28:12;;;;;;;19.50;3.45;;;6.20;99.90;;;;;;4921887;29;20420;-77
2023/12/22 06:30:42;;;;;;;16.08;3.13;;;6.20;99.90;;;;;;4937794;29;20039;-77
2023/12/22 06:33:08;;;;;;;21.40;3.47;;;6.10;99.90;;;;;;4922515;29;20043;-77
2023/12/22 06:35:35;;;;;;;19.85;3.60;;;6.20;99.90;;;;;;4937538;29;20547;-76
2023/12/22 06:38:03;;;;;;;18.13;3.53;;;6.20;99.90;;;;;;4921725;29;20047;-74
2023/12/22 06:40:29;;;;;;;20.77;3.58;;;6.20;99.90;;;;;;4922555;29;20039;-77
2023/12/22 06:42:55;;;;;;;18.55;3.20;;;6.30;99.90;;;;;;4937530;29;20047;-76
2023/12/22 06:45:21;;;;;;;18.42;3.67;;;6.30;99.90;;;;;;4921978;29;20089;-76
2023/12/22 06:47:46;;;;;;;19.30;3.35;;;6.20;99.90;;;;;;4906361;29;20051;-77
2023/12/22 06:50:12;;;;;;;18.63;3.33;;;6.20;99.90;;;;;;4921614;29;20058;-77
2023/12/22 06:52:41;;;;;;;19.10;3.47;;;6.20;99.90;;;;;;4921613;29;20039;-76
2023/12/22 06:55:08;;;;;;;16.23;2.95;;;6.20;99.90;;;;;;4906149;29;20495;-77
2023/12/22 06:57:34;;;;;;;16.42;3.45;;;6.20;99.90;;;;;;4921768;29;20031;-77
2023/12/22 07:00:00;;;;;;;15.32;3.05;;;6.20;99.90;;;;;;4921950;29;20039;-76
2023/12/22 07:02:26;;;;;;;19.20;3.13;;;6.20;99.90;;;;;;4921627;29;20048;-75
2023/12/22 07:05:10;;;;;;;20.27;3.70;;;6.20;99.90;;;;;;4937609;29;20054;-77
2023/12/22 07:07:36;;;;;;;17.17;2.90;;;6.20;99.90;;;;;;4921628;29;20400;-76
2023/12/22 07:10:03;;;;;;;17.00;3.33;;;6.30;99.90;;;;;;4921733;29;20519;-76
2023/12/22 07:12:29;;;;;;;17.35;3.55;;;6.20;99.90;;;;;;4921500;29;20039;-77
2023/12/22 07:14:55;;;;;;;16.58;3.35;;;6.20;99.90;;;;;;4921672;29;20043;-77
2023/12/22 07:17:24;;;;;;;18.73;3.20;;;6.20;99.90;;;;;;4922149;29;20395;-77
2023/12/22 07:19:51;;;;;;;21.30;3.65;;;6.20;99.90;;;;;;4921969;29;20039;-77
2023/12/22 07:22:17;;;;;;;21.95;3.85;;;6.20;99.90;;;;;;4937066;29;20098;-76
2023/12/22 07:24:43;;;;;;;20.20;3.75;;;6.20;99.90;;;;;;4921335;29;20063;-78
2023/12/22 07:27:10;;;;;;;17.33;3.17;;;6.20;99.90;;;;;;4921404;28;20055;-78
2023/12/22 07:29:36;;;;;;;17.75;3.47;;;6.20;99.90;;;;;;4924234;29;20130;-77
2023/12/22 07:32:02;;;;;;;16.13;3.30;;;6.20;99.90;;;;;;4924919;29;20130;-76
2023/12/22 07:34:27;;;;;;;18.80;3.50;;;6.20;99.90;;;;;;4924967;29;20134;-77
2023/12/22 07:36:53;;;;;;;17.63;3.22;;;6.20;99.90;;;;;;4941090;29;20039;-77
2023/12/22 07:39:19;;;;;;;18.95;5.43;;;6.20;99.90;;;;;;4909143;29;20047;-76
2023/12/22 07:41:45;;;;;;;17.67;3.30;;;6.20;99.90;;;;;;4940555;29;20043;-76
2023/12/22 07:44:12;;;;;;;19.65;5.05;;;6.20;99.90;;;;;;4924648;29;20069;-77
2023/12/22 07:46:38;;;;;;;15.82;3.20;;;6.20;99.90;;;;;;4924878;29;20051;-77
2023/12/22 07:49:04;;;;;;;16.25;3.03;;;6.30;99.90;;;;;;4924866;29;20147;-77
2023/12/22 07:51:30;;;;;;;17.42;3.22;;;6.20;99.90;;;;;;4940688;29;20046;-76
2023/12/22 07:53:56;;;;;;;14.63;2.95;;;6.30;99.90;;;;;;4924663;29;20078;-76
2023/12/22 07:56:22;;;;;;;19.17;3.25;;;6.30;99.90;;;;;;4940513;29;20075;-76
2023/12/22 07:58:48;;;;;;;20.10;3.35;;;6.30;99.90;;;;;;4924715;29;20043;-77
2023/12/22 08:01:15;;;;;;;22.95;3.33;;;6.20;99.90;;;;;;4940423;29;20093;-77
2023/12/22 08:03:41;;;;;;;17.98;2.97;;;6.20;99.90;;;;;;4908875;29;20043;-76
2023/12/22 08:06:07;;;;;;;17.00;3.10;;;6.20;99.90;;;;;;4924250;29;20047;-76
2023/12/22 08:08:34;;;;;;;17.58;3.13;;;6.20;99.90;;;;;;4940160;29;20055;-76
2023/12/22 08:11:00;;;;;;;25.73;3.40;;;6.20;99.90;;;;;;4940070;29;20054;-76
2023/12/22 08:13:26;;;;;;;17.75;3.35;;;6.20;99.90;;;;;;4940112;29;20381;-77
2023/12/22 08:15:53;;;;;;;19.15;3.70;;;6.20;99.90;;;;;;4939947;29;20555;-77
2023/12/22 08:18:18;;;;;;;20.15;3.50;;;6.20;99.90;;;;;;4924627;29;20039;-76
2023/12/22 08:20:44;;;;;;;18.02;3.08;;;6.20;99.90;;;;;;4924165;29;20047;-77
2023/12/22 08:23:12;;;;;;;20.95;3.63;;;6.20;99.90;;;;;;4940120;29;20142;-77
2023/12/22 08:25:40;;;;;;;16.52;3.55;;;6.20;99.90;;;;;;4940148;29;20133;-78
2023/12/22 08:28:06;;;;;;;22.02;3.70;;;6.20;99.90;;;;;;4924323;29;20126;-78
2023/12/22 08:30:31;;;;;;;17.60;3.53;;;6.30;99.90;;;;;;4923827;29;20150;-77
2023/12/22 08:32:57;;;;;;;18.40;3.50;;;6.30;99.90;;;;;;4923957;29;20102;-77
2023/12/22 08:35:23;;;;;;;17.33;3.53;;;6.40;99.90;;;;;;4939715;29;20070;-77
2023/12/22 08:37:49;;;;;;;24.15;3.78;;;6.40;99.90;;;;;;4924039;29;20039;-76
2023/12/22 08:40:25;;;;;;;14.55;3.05;;;6.40;99.90;;;;;;4923795;29;20440;-78
2023/12/22 08:42:54;;;;;;;20.75;3.58;;;6.40;99.90;;;;;;4939840;29;20047;-77
2023/12/22 08:45:21;;;;;;;21.90;3.97;;;6.50;99.90;;;;;;4924039;29;20102;-77
2023/12/22 08:47:47;;;;;;;21.67;3.58;;;6.50;99.90;;;;;;4939673;29;20043;-76
2023/12/22 08:50:13;;;;;;;20.67;3.55;;;6.50;99.90;;;;;;4939285;29;20043;-77
2023/12/22 08:52:42;;;;;;;19.52;3.58;;;6.50;99.90;;;;;;4939289;29;20049;-77
2023/12/22 08:55:11;;;;;;;19.25;3.60;;;6.50;99.90;;;;;;4923995;29;20051;-77
2023/12/22 08:57:37;;;;;;;18.58;3.30;;;6.50;99.90;;;;;;4924352;29;20490;-77
2023/12/22 09:00:04;;;;;;;17.40;3.03;;;6.60;99.90;;;;;;4923684;29;20126;-78
2023/12/22 09:02:29;;;;;;;10.18;2.40;;;6.60;99.90;;;;;;4939009;29;20043;-76
2023/12/22 09:04:55;;;;;;;10.00;1.98;;;6.60;99.90;;;;;;4923346;29;20093;-77
2023/12/22 09:07:22;;;;;;;13.05;2.55;;;6.60;99.90;;;;;;4923114;29;20043;-76
2023/12/22 09:09:50;;;;;;;13.43;2.50;;;6.60;99.90;;;;;;4939151;29;20047;-77
2023/12/22 09:12:16;;;;;;;11.93;2.05;;;6.60;99.90;;;;;;4922898;29;20052;-77
2023/12/22 09:14:42;;;;;;;8.10;1.73;;;6.60;99.90;;;;;;4923196;29;20050;-76
2023/12/22 09:17:09;;;;;;;11.52;2.00;;;6.60;99.90;;;;;;4939309;29;20043;-77
2023/12/22 09:19:38;;;;;;;6.57;1.25;;;6.60;99.90;;;;;;4922142;29;20047;-77
2023/12/22 09:22:11;;;;;;;6.97;1.52;;;6.80;99.90;;;;;;4938904;29;20173;-77
2023/12/22 09:24:38;;;;;;;8.07;1.40;;;6.90;99.90;;;;;;4922902;29;20512;-77
2023/12/22 09:27:04;;;;;;;10.10;1.70;;;7.00;99.90;;;;;;4923041;29;20047;-77
2023/12/22 09:29:33;;;;;;;8.32;1.40;;;7.10;99.90;;;;;;4923052;29;20047;-77
2023/12/22 09:31:59;;;;;;;9.52;1.70;;;7.10;99.90;;;;;;4938557;29;20043;-76
2023/12/22 09:34:27;;;;;;;7.78;1.35;;;7.20;99.90;;;;;;4938501;29;20066;-77
2023/12/22 09:36:54;;;;;;;8.88;1.50;;;7.10;99.90;;;;;;4922876;29;20051;-77
2023/12/22 09:39:26;;;;;;;6.65;1.50;;;7.10;99.90;;;;;;4922784;29;20086;-78
2023/12/22 09:41:53;;;;;;;7.88;1.48;;;7.10;99.90;;;;;;4938557;29;20057;-76
2023/12/22 09:44:21;;;;;;;6.20;1.23;;;7.00;99.90;;;;;;4922453;29;20039;-77
2023/12/22 09:46:50;;;;;;;7.47;1.45;;;7.00;99.90;;;;;;4922426;29;20109;-77
2023/12/22 09:49:21;;;;;;;5.75;1.20;;;7.00;99.90;;;;;;4938487;29;20046;-77
2023/12/22 09:51:49;;;;;;;5.38;1.20;;;7.00;99.90;;;;;;4937408;29;20451;-76
2023/12/22 09:54:16;;;;;;;7.93;1.40;;;6.90;99.90;;;;;;4938507;29;20531;-76
2023/12/22 09:56:42;;;;;;;6.30;1.42;;;7.00;99.90;;;;;;4938512;29;20488;-76
2023/12/22 09:59:13;;;;;;;7.45;1.17;;;6.90;99.90;;;;;;4922496;29;20039;-77
2023/12/22 10:01:48;;;;;;;6.07;1.30;;;6.90;99.90;;;;;;4938079;29;20043;-77
2023/12/22 10:04:14;;;;;;;8.52;1.40;;;6.90;99.90;;;;;;4938293;29;20046;-76
2023/12/22 10:06:41;;;;;;;8.40;1.38;;;6.90;99.90;;;;;;4938277;29;20504;-77
2023/12/22 10:09:08;;;;;;;6.07;1.42;;;6.90;99.90;;;;;;4938028;29;20043;-77
2023/12/22 10:11:36;;;;;;;7.78;1.60;;;6.90;99.90;;;;;;4937742;29;20116;-77
2023/12/22 10:14:04;;;;;;;8.10;1.60;;;6.90;99.90;;;;;;4922091;29;20090;-78
2023/12/22 10:16:30;;;;;;;8.60;1.48;;;6.90;99.90;;;;;;4922650;29;20039;-75
2023/12/22 10:18:58;;;;;;;7.30;1.48;;;6.80;99.90;;;;;;4937814;29;20039;-76
2023/12/22 10:21:24;;;;;;;9.40;1.60;;;6.90;99.90;;;;;;4937997;29;20468;-76
2023/12/22 10:23:50;;;;;;;6.72;1.35;;;6.90;99.90;;;;;;4922012;29;20106;-77
2023/12/22 10:26:16;;;;;;;6.72;1.35;;;6.90;99.90;;;;;;4921952;29;20043;-76
2023/12/22 10:28:43;;;;;;;7.40;1.77;;;6.90;99.90;;;;;;4922207;29;20170;-77
2023/12/22 10:31:09;;;;;;;6.95;1.63;;;6.80;99.90;;;;;;4921938;29;20078;-77
2023/12/22 10:33:35;;;;;;;10.27;1.83;;;6.80;99.90;;;;;;4937921;29;20035;-77
2023/12/22 10:36:01;;;;;;;8.93;1.67;;;6.80;99.90;;;;;;4921968;29;20093;-76
2023/12/22 10:38:33;;;;;;;11.07;1.95;;;6.90;99.90;;;;;;4922109;29;20035;-76
2023/12/22 10:40:59;;;;;;;11.50;1.83;;;6.90;99.90;;;;;;4937795;29;20512;-76
2023/12/22 10:43:25;;;;;;;14.18;2.00;;;6.90;99.90;;;;;;4921725;29;20054;-76
2023/12/22 10:45:54;;;;;;;14.50;2.15;;;6.90;99.90;;;;;;4921736;29;20496;-76
2023/12/22 10:48:21;;;;;;;13.82;2.00;;;6.80;99.90;;;;;;4937561;29;20492;-76
2023/12/22 10:50:47;;;;;;;11.85;2.10;;;6.80;99.90;;;;;;4921633;29;20051;-76
2023/12/22 10:53:16;;;;;;;10.85;2.08;;;6.80;99.90;;;;;;4922212;29;20101;-77
2023/12/22 10:55:41;;;;;;;14.23;2.15;;;6.90;99.90;;;;;;4922132;29;20043;-77
2023/12/22 10:58:09;;;;;;;11.32;2.05;;;6.80;99.90;;;;;;4937421;29;20049;-77
2023/12/22 11:00:38;;;;;;;14.63;2.13;;;6.90;99.90;;;;;;4921646;29;20145;-77
2023/12/22 11:03:08;;;;;;;18.00;2.30;;;6.90;99.90;;;;;;4939644;29;20051;-78
2023/12/22 11:05:44;;;;;;;11.90;2.10;;;6.90;99.90;;;;;;4957205;29;20042;-78
2023/12/22 11:08:12;;;;;;;10.57;1.98;;;6.90;99.90;;;;;;4941526;29;20043;-78
2023/12/22 11:10:44;;;;;;;14.38;2.22;;;6.90;99.90;;;;;;4941483;29;20074;-77
2023/12/22 11:13:17;;;;;;;12.32;2.03;;;6.90;99.90;;;;;;4925588;29;20058;-78
2023/12/22 11:15:44;;;;;;;15.07;2.30;;;6.90;99.90;;;;;;4925499;29;20043;-75
2023/12/22 11:18:11;;;;;;;13.68;2.60;;;6.90;99.90;;;;;;4941075;29;20070;-78
2023/12/22 11:20:38;;;;;;;11.82;2.50;;;6.90;99.90;;;;;;4940957;29;20089;-78
2023/12/22 11:23:05;;;;;;;11.10;2.22;;;6.90;99.90;;;;;;4940854;29;20047;-77
2023/12/22 11:25:32;;;;;;;11.38;2.50;;;6.90;99.90;;;;;;4957080;29;20051;-78
2023/12/22 11:28:00;;;;;;;12.55;2.42;;;6.90;99.90;;;;;;4940713;29;20082;-76
2023/12/22 11:30:28;;;;;;;14.23;2.38;;;6.90;99.90;;;;;;4940916;29;20074;-77
2023/12/22 11:32:54;;;;;;;15.05;2.53;;;6.90;99.90;;;;;;4925023;29;20085;-77
2023/12/22 11:35:24;;;;;;;12.48;1.92;;;6.90;99.90;;;;;;4925224;29;20039;-76
2023/12/22 11:37:50;;;;;;;11.15;2.20;;;7.00;99.90;;;;;;4924865;29;20046;-76
2023/12/22 11:40:16;;;;;;;12.20;2.13;;;7.00;99.90;;;;;;4941123;29;20050;-76
2023/12/22 11:42:50;;;;;;;10.77;2.20;;;7.00;99.90;;;;;;4925581;29;20438;-77
2023/12/22 11:45:17;;;;;;;13.30;1.80;;;7.00;99.90;;;;;;4941317;29;20043;-78
2023/12/22 11:47:43;;;;;;;11.30;2.03;;;7.00;99.90;;;;;;4940948;29;20054;-76
2023/12/22 11:50:10;;;;;;;11.15;1.90;;;7.10;99.90;;;;;;4924812;29;20043;-77
2023/12/22 11:52:36;;;;;;;8.23;1.70;;;7.00;99.90;;;;;;4924864;29;20102;-78
2023/12/22 11:55:03;;;;;;;9.18;1.60;;;7.10;99.90;;;;;;4925051;29;20039;-77
2023/12/22 11:57:33;;;;;;;9.00;1.58;;;7.10;99.90;;;;;;4940483;29;20043;-77
2023/12/22 12:00:07;;;;;;;8.25;1.60;;;7.10;99.90;;;;;;4925716;29;20535;-78
2023/12/22 12:02:36;;;;;;;7.68;1.58;;;7.10;99.90;;;;;;4942004;29;20492;-77
2023/12/22 12:05:03;;;;;;;9.05;1.67;;;7.20;99.90;;;;;;4927886;29;20400;-77
2023/12/22 12:07:40;;;;;;;11.80;1.88;;;7.20;99.90;;;;;;4944635;29;20043;-76
2023/12/22 12:10:09;;;;;;;9.52;1.80;;;7.20;99.90;;;;;;4943818;29;20047;-76
2023/12/22 12:12:36;;;;;;;9.60;1.80;;;7.20;99.90;;;;;;4941195;29;20505;-76
2023/12/22 12:15:16;;;;;;;9.77;1.70;;;7.20;99.90;;;;;;4943379;29;20046;-76
2023/12/22 12:17:43;;;;;;;8.95;1.75;;;7.20;99.90;;;;;;4932755;29;20049;-77
2023/12/22 12:20:10;;;;;;;8.15;1.70;;;7.20;99.90;;;;;;4945058;29;20037;-76
2023/12/22 12:22:40;;;;;;;11.25;2.10;;;7.20;99.90;;;;;;4948902;29;20074;-77
2023/12/22 12:25:13;;;;;;;8.00;1.63;;;7.30;99.90;;;;;;4946371;29;20478;-75
2023/12/22 12:27:39;;;;;;;10.23;1.90;;;7.20;99.90;;;;;;4945014;29;20093;-74
2023/12/22 12:30:13;;;;;;;14.45;2.70;;;7.30;99.90;;;;;;4944761;29;20039;-74
2023/12/22 12:32:42;;;;;;;10.90;2.83;;;7.30;99.90;;;;;;4949138;29;20051;-76
2023/12/22 12:35:08;;;;;;;12.98;2.47;;;7.30;99.90;;;;;;4959065;29;20067;-75
2023/12/22 12:37:36;;;;;;;10.18;1.90;;;7.30;99.90;;;;;;4958328;29;20495;-77
2023/12/22 12:40:04;;;;;;;10.52;2.00;;;7.30;99.90;;;;;;4940149;29;20046;-77
2023/12/22 12:42:31;;;;;;;9.73;2.05;;;7.30;99.90;;;;;;4954691;29;20055;-75
2023/12/22 12:44:57;;;;;;;9.50;1.70;;;7.40;99.90;;;;;;4930888;29;20043;-78
2023/12/22 12:47:23;;;;;;;11.55;1.88;;;7.30;99.90;;;;;;4912491;29;20047;-78
2023/12/22 12:50:02;;;;;;;8.88;2.00;;;7.30;99.90;;;;;;4928078;29;20137;-77